FKYSFKKR

Guest
Details From FKYS - YAOUNDE NSIMALEN
To FKKR - GAROUA
Flight Number -
Tags generated
Created
Modified
Stats Distance 354 nm / 656 km
Max Altitude 35,000 ft / 10,668 m
Waypoints 4
Social Downloads 2
Likes 0
Share VATSIM

Download

Looking for another format? Having issues loading an existing format? Contact us
Advertisement - Login to hide

Notes

Basic altitude profile: - Ascent Rate: 2500ft/min - Ascent Speed: 250kts - Cruise Altitude: 35000ft - Cruise Speed: 420kts - Descent Rate: 1500ft/min - Descent Speed: 250kts Options: - Use NATs: yes - Use PACOTS: yes - Use low airways: yes - Use high airways: yes

Route

FKYS KEMOX UH455G ASSAM FKKR

ID Type Via Altitude Latitude Longitude Leg Dist Tot Dist Heading (true) Name
O FKYS APT - 0 ft / 0 m 3.72255˚ 11.55327˚ - 0 nm - YAOUNDE NSIMALEN
KEMOX FIX - 35,000 ft / 10,668 m 5.43139˚ 12.09583˚ 107 nm 107 nm 18° / 18° -
ASSAM FIX UH455G (AWY-HI) 23,500 ft / 7,163 m 8.00000˚ 12.91500˚ 161 nm 269 nm 18° / 18° -
O FKKR APT - 0 ft / 0 m 9.33589˚ 13.37010˚ 84 nm 354 nm 19° / 19° GAROUA

Altitude Profile

Advertisement - Login to hide

Weather


0- 5 10 15 20 25 30 35+ Temperature / ° C

Clouds and Precipitation
Forecast for 2017-12-14 00:00 UTC. Updated an hour ago

Ground ~20,000 ft ~40,000 ft Winds

FKYS

Details ICAO FKYS (NSI)
Name YAOUNDE NSIMALEN
Region Cameroon
Timezone Africa/Douala (UTC+1.0)
Stats Elevation 2,278 ft / 694 m (AMSL)
Location 3.722554° 11.553270°
Runways 1
Magnetic Variation 0.691° W

METAR

FKYS 132200Z 00000KT 7000 NSC 20/20 Q1016 NOSIG

Decode

TAF

TAF FKYS 131700Z 1318/1418 03003KT 6000 SCT020 BECMG 1320/1322 SCT006 BECMG 1402/1403 1500 BR BKN006 BECMG 1407/1409 3000 HZ SCT016

Decode

Departure Runways

ID Width Length Bearing (true) Bearing (mag) Surface Threshold Offset Overrun Length
01 148 ft / 45 m 11,220 ft / 3,420 m 9.87° 10.56° Asphalt 0 ft / 0 m 200 ft / 61 m
19 148 ft / 45 m 11,220 ft / 3,420 m 189.87° 190.56° Asphalt 0 ft / 0 m 200 ft / 61 m

FKKR

Details ICAO FKKR (GOU)
Name GAROUA
Region Cameroon
Timezone Africa/Douala (UTC+1.0)
Stats Elevation 794 ft / 242 m (AMSL)
Location 9.335890° 13.370103°
Runways 1
Magnetic Variation 0.544° E

METAR

FKKR 132100Z 12006KT CAVOK 29/10 Q1011

Decode

TAF

Not found

Destination Runways

ID Width Length Bearing (true) Bearing (mag) Surface Threshold Offset Overrun Length
09 148 ft / 45 m 11,022 ft / 3,360 m 86.23° 85.69° Asphalt 0 ft / 0 m 492 ft / 150 m
27 148 ft / 45 m 11,022 ft / 3,360 m 266.23° 265.69° Asphalt 377 ft / 115 m 492 ft / 150 m

Popular Alternatives